sensor_id;sensor_type;location;lat;lon;timestamp;temperature;humidity
74420;DHT22;62855;50.718;-2.460;2022-11-20T00:02:01;46.94;82.00
74420;DHT22;62855;50.718;-2.460;2022-11-20T00:05:01;46.94;82.00
74420;DHT22;62855;50.718;-2.460;2022-11-20T00:08:01;46.94;82.00
74420;DHT22;62855;50.718;-2.460;2022-11-20T00:11:03;46.94;82.00
74420;DHT22;62855;50.718;-2.460;2022-11-20T00:14:02;46.94;82.00
74420;DHT22;62855;50.718;-2.460;2022-11-20T00:17:01;46.94;83.00
74420;DHT22;62855;50.718;-2.460;2022-11-20T00:20:01;47.12;83.00
74420;DHT22;62855;50.718;-2.460;2022-11-20T00:23:01;47.12;83.00
74420;DHT22;62855;50.718;-2.460;2022-11-20T00:26:03;47.12;83.00
74420;DHT22;62855;50.718;-2.460;2022-11-20T00:29:01;47.30;83.00
74420;DHT22;62855;50.718;-2.460;2022-11-20T00:32:00;47.30;83.00
74420;DHT22;62855;50.718;-2.460;2022-11-20T00:35:00;47.30;83.00
74420;DHT22;62855;50.718;-2.460;2022-11-20T00:38:01;47.30;83.00
74420;DHT22;62855;50.718;-2.460;2022-11-20T00:41:03;47.48;83.00
74420;DHT22;62855;50.718;-2.460;2022-11-20T00:44:01;47.48;83.00
74420;DHT22;62855;50.718;-2.460;2022-11-20T00:47:01;47.48;83.00
74420;DHT22;62855;50.718;-2.460;2022-11-20T00:50:02;47.48;83.00
74420;DHT22;62855;50.718;-2.460;2022-11-20T00:53:01;47.48;83.00
74420;DHT22;62855;50.718;-2.460;2022-11-20T00:56:03;47.48;84.00
74420;DHT22;62855;50.718;-2.460;2022-11-20T00:59:01;47.48;84.00
74420;DHT22;62855;50.718;-2.460;2022-11-20T01:02:01;47.66;84.00
74420;DHT22;62855;50.718;-2.460;2022-11-20T01:05:01;47.66;84.00
74420;DHT22;62855;50.718;-2.460;2022-11-20T01:08:01;47.66;84.00
74420;DHT22;62855;50.718;-2.460;2022-11-20T01:11:03;47.84;84.00
74420;DHT22;62855;50.718;-2.460;2022-11-20T01:14:03;47.84;84.00
74420;DHT22;62855;50.718;-2.460;2022-11-20T01:17:01;47.84;85.00
74420;DHT22;62855;50.718;-2.460;2022-11-20T01:20:01;47.84;85.00
74420;DHT22;62855;50.718;-2.460;2022-11-20T01:23:02;48.02;85.00
74420;DHT22;62855;50.718;-2.460;2022-11-20T01:26:31;48.02;85.00
74420;DHT22;62855;50.718;-2.460;2022-11-20T02:24:03;48.38;88.00
74420;DHT22;62855;50.718;-2.460;2022-11-20T02:27:06;48.38;88.00
74420;DHT22;62855;50.718;-2.460;2022-11-20T02:30:04;48.38;88.00
74420;DHT22;62855;50.718;-2.460;2022-11-20T02:33:01;48.38;88.00
74420;DHT22;62855;50.718;-2.460;2022-11-20T02:36:01;48.38;88.00
74420;DHT22;62855;50.718;-2.460;2022-11-20T02:39:01;48.38;88.00
74420;DHT22;62855;50.718;-2.460;2022-11-20T02:42:01;48.38;88.00
74420;DHT22;62855;50.718;-2.460;2022-11-20T02:45:00;48.38;88.00
74420;DHT22;62855;50.718;-2.460;2022-11-20T02:48:01;48.38;88.00
74420;DHT22;62855;50.718;-2.460;2022-11-20T02:51:02;48.38;88.00
74420;DHT22;62855;50.718;-2.460;2022-11-20T02:54:01;48.56;89.00
74420;DHT22;62855;50.718;-2.460;2022-11-20T02:57:00;48.56;89.00
74420;DHT22;62855;50.718;-2.460;2022-11-20T03:00:03;48.74;89.00
74420;DHT22;62855;50.718;-2.460;2022-11-20T03:03:01;48.74;89.00
74420;DHT22;62855;50.718;-2.460;2022-11-20T03:06:01;48.74;89.00
74420;DHT22;62855;50.718;-2.460;2022-11-20T03:09:01;48.74;89.00
74420;DHT22;62855;50.718;-2.460;2022-11-20T03:12:02;48.74;89.00
74420;DHT22;62855;50.718;-2.460;2022-11-20T03:15:01;48.92;89.00
74420;DHT22;62855;50.718;-2.460;2022-11-20T03:18:01;48.92;89.00
74420;DHT22;62855;50.718;-2.460;2022-11-20T03:21:01;49.10;90.00
74420;DHT22;62855;50.718;-2.460;2022-11-20T03:24:01;49.10;90.00
74420;DHT22;62855;50.718;-2.460;2022-11-20T03:27:01;49.10;90.00
74420;DHT22;62855;50.718;-2.460;2022-11-20T03:30:01;49.28;90.00
74420;DHT22;62855;50.718;-2.460;2022-11-20T03:34:02;49.46;90.00
74420;DHT22;62855;50.718;-2.460;2022-11-20T03:37:01;49.64;90.00
74420;DHT22;62855;50.718;-2.460;2022-11-20T03:40:01;49.82;90.00
74420;DHT22;62855;50.718;-2.460;2022-11-20T03:43:01;50.00;90.00
74420;DHT22;62855;50.718;-2.460;2022-11-20T03:46:03;50.00;90.00
74420;DHT22;62855;50.718;-2.460;2022-11-20T03:49:02;50.00;90.00
74420;DHT22;62855;50.718;-2.460;2022-11-20T03:52:01;50.00;90.00
74420;DHT22;62855;50.718;-2.460;2022-11-20T03:55:00;50.00;90.00
74420;DHT22;62855;50.718;-2.460;2022-11-20T03:58:01;49.82;90.00
74420;DHT22;62855;50.718;-2.460;2022-11-20T04:01:05;49.64;90.00
74420;DHT22;62855;50.718;-2.460;2022-11-20T04:04:02;49.28;90.00
74420;DHT22;62855;50.718;-2.460;2022-11-20T04:07:01;49.10;90.00
74420;DHT22;62855;50.718;-2.460;2022-11-20T04:10:01;48.92;90.00
74420;DHT22;62855;50.718;-2.460;2022-11-20T04:13:01;48.74;90.00
74420;DHT22;62855;50.718;-2.460;2022-11-20T04:16:01;48.56;90.00
74420;DHT22;62855;50.718;-2.460;2022-11-20T04:19:03;48.56;90.00
74420;DHT22;62855;50.718;-2.460;2022-11-20T04:22:00;48.38;90.00
74420;DHT22;62855;50.718;-2.460;2022-11-20T04:25:01;48.38;90.00
74420;DHT22;62855;50.718;-2.460;2022-11-20T04:28:01;48.20;90.00
74420;DHT22;62855;50.718;-2.460;2022-11-20T04:31:03;48.02;90.00
74420;DHT22;62855;50.718;-2.460;2022-11-20T04:34:02;48.02;90.00
74420;DHT22;62855;50.718;-2.460;2022-11-20T04:37:01;47.84;90.00
74420;DHT22;62855;50.718;-2.460;2022-11-20T04:40:00;47.66;90.00
74420;DHT22;62855;50.718;-2.460;2022-11-20T04:43:01;47.66;90.00
74420;DHT22;62855;50.718;-2.460;2022-11-20T04:46:01;47.66;90.00
74420;DHT22;62855;50.718;-2.460;2022-11-20T04:49:01;47.48;90.00
74420;DHT22;62855;50.718;-2.460;2022-11-20T04:52:01;47.48;90.00
74420;DHT22;62855;50.718;-2.460;2022-11-20T04:55:01;47.48;89.00
74420;DHT22;62855;50.718;-2.460;2022-11-20T04:58:00;47.30;89.00
74420;DHT22;62855;50.718;-2.460;2022-11-20T05:01:01;47.30;89.00
74420;DHT22;62855;50.718;-2.460;2022-11-20T05:04:01;47.12;89.00
74420;DHT22;62855;50.718;-2.460;2022-11-20T05:07:02;47.12;89.00
74420;DHT22;62855;50.718;-2.460;2022-11-20T05:10:01;47.12;89.00
74420;DHT22;62855;50.718;-2.460;2022-11-20T05:13:01;46.94;89.00
74420;DHT22;62855;50.718;-2.460;2022-11-20T05:16:02;46.94;89.00
74420;DHT22;62855;50.718;-2.460;2022-11-20T05:19:01;46.94;89.00
74420;DHT22;62855;50.718;-2.460;2022-11-20T05:22:01;46.94;89.00
74420;DHT22;62855;50.718;-2.460;2022-11-20T05:25:01;46.94;88.00
74420;DHT22;62855;50.718;-2.460;2022-11-20T05:28:01;46.76;88.00
74420;DHT22;62855;50.718;-2.460;2022-11-20T05:31:05;46.76;88.00
74420;DHT22;62855;50.718;-2.460;2022-11-20T05:34:01;46.76;88.00
74420;DHT22;62855;50.718;-2.460;2022-11-20T05:37:01;46.58;88.00
74420;DHT22;62855;50.718;-2.460;2022-11-20T05:40:01;46.58;87.00
74420;DHT22;62855;50.718;-2.460;2022-11-20T05:43:01;46.40;87.00
74420;DHT22;62855;50.718;-2.460;2022-11-20T05:46:01;46.40;87.00
74420;DHT22;62855;50.718;-2.460;2022-11-20T05:49:01;46.22;87.00
74420;DHT22;62855;50.718;-2.460;2022-11-20T05:52:01;46.22;87.00
74420;DHT22;62855;50.718;-2.460;2022-11-20T05:55:01;46.22;86.00
74420;DHT22;62855;50.718;-2.460;2022-11-20T05:58:01;46.04;86.00
74420;DHT22;62855;50.718;-2.460;2022-11-20T06:01:06;46.04;86.00
74420;DHT22;62855;50.718;-2.460;2022-11-20T06:04:01;46.04;86.00
74420;DHT22;62855;50.718;-2.460;2022-11-20T06:07:01;45.86;86.00
74420;DHT22;62855;50.718;-2.460;2022-11-20T06:10:01;45.86;86.00
74420;DHT22;62855;50.718;-2.460;2022-11-20T06:13:01;45.68;86.00
74420;DHT22;62855;50.718;-2.460;2022-11-20T06:16:01;45.68;86.00
74420;DHT22;62855;50.718;-2.460;2022-11-20T06:19:00;45.68;85.00
74420;DHT22;62855;50.718;-2.460;2022-11-20T06:22:01;45.68;85.00
74420;DHT22;62855;50.718;-2.460;2022-11-20T06:25:01;45.50;85.00
74420;DHT22;62855;50.718;-2.460;2022-11-20T06:28:02;45.50;85.00
74420;DHT22;62855;50.718;-2.460;2022-11-20T06:31:01;45.32;85.00
74420;DHT22;62855;50.718;-2.460;2022-11-20T06:34:01;45.32;85.00
74420;DHT22;62855;50.718;-2.460;2022-11-20T06:37:01;45.32;85.00
74420;DHT22;62855;50.718;-2.460;2022-11-20T06:40:01;45.14;85.00
74420;DHT22;62855;50.718;-2.460;2022-11-20T06:43:01;45.14;85.00
74420;DHT22;62855;50.718;-2.460;2022-11-20T06:46:00;45.14;85.00
74420;DHT22;62855;50.718;-2.460;2022-11-20T06:49:01;45.14;85.00
74420;DHT22;62855;50.718;-2.460;2022-11-20T06:52:01;45.14;85.00
74420;DHT22;62855;50.718;-2.460;2022-11-20T06:55:01;45.14;85.00
74420;DHT22;62855;50.718;-2.460;2022-11-20T06:58:01;45.14;85.00
74420;DHT22;62855;50.718;-2.460;2022-11-20T07:01:02;45.14;85.00
74420;DHT22;62855;50.718;-2.460;2022-11-20T07:04:01;45.14;85.00
74420;DHT22;62855;50.718;-2.460;2022-11-20T07:07:01;44.96;85.00
74420;DHT22;62855;50.718;-2.460;2022-11-20T07:10:01;44.96;85.00
74420;DHT22;62855;50.718;-2.460;2022-11-20T07:13:01;45.14;85.00
74420;DHT22;62855;50.718;-2.460;2022-11-20T07:16:03;45.14;85.00
74420;DHT22;62855;50.718;-2.460;2022-11-20T07:19:01;45.14;84.00
74420;DHT22;62855;50.718;-2.460;2022-11-20T07:22:01;45.14;84.00
74420;DHT22;62855;50.718;-2.460;2022-11-20T07:25:01;45.32;84.00
74420;DHT22;62855;50.718;-2.460;2022-11-20T07:28:01;45.32;84.00
74420;DHT22;62855;50.718;-2.460;2022-11-20T07:31:01;45.32;84.00
74420;DHT22;62855;50.718;-2.460;2022-11-20T07:34:01;45.14;84.00
74420;DHT22;62855;50.718;-2.460;2022-11-20T07:37:00;45.14;84.00
74420;DHT22;62855;50.718;-2.460;2022-11-20T07:40:01;45.32;84.00
74420;DHT22;62855;50.718;-2.460;2022-11-20T07:43:01;45.32;83.00
74420;DHT22;62855;50.718;-2.460;2022-11-20T07:46:01;45.14;83.00
74420;DHT22;62855;50.718;-2.460;2022-11-20T07:49:01;45.14;83.00
74420;DHT22;62855;50.718;-2.460;2022-11-20T07:52:01;44.96;83.00
74420;DHT22;62855;50.718;-2.460;2022-11-20T07:55:01;44.96;83.00
74420;DHT22;62855;50.718;-2.460;2022-11-20T07:58:01;44.78;83.00
74420;DHT22;62855;50.718;-2.460;2022-11-20T08:01:02;44.60;82.00
74420;DHT22;62855;50.718;-2.460;2022-11-20T08:04:01;44.60;82.00
74420;DHT22;62855;50.718;-2.460;2022-11-20T08:07:00;44.42;82.00
74420;DHT22;62855;50.718;-2.460;2022-11-20T08:10:00;44.60;82.00
74420;DHT22;62855;50.718;-2.460;2022-11-20T08:13:00;44.78;83.00
74420;DHT22;62855;50.718;-2.460;2022-11-20T08:16:01;44.96;83.00
74420;DHT22;62855;50.718;-2.460;2022-11-20T08:19:01;45.14;83.00
74420;DHT22;62855;50.718;-2.460;2022-11-20T08:22:01;45.14;83.00
74420;DHT22;62855;50.718;-2.460;2022-11-20T08:25:01;45.32;83.00
74420;DHT22;62855;50.718;-2.460;2022-11-20T08:28:03;45.32;83.00
74420;DHT22;62855;50.718;-2.460;2022-11-20T08:31:02;45.32;83.00
74420;DHT22;62855;50.718;-2.460;2022-11-20T08:34:01;45.32;83.00
74420;DHT22;62855;50.718;-2.460;2022-11-20T08:37:01;45.32;83.00
74420;DHT22;62855;50.718;-2.460;2022-11-20T08:40:01;45.32;83.00
74420;DHT22;62855;50.718;-2.460;2022-11-20T08:42:00;45.32;83.00
74420;DHT22;62855;50.718;-2.460;2022-11-20T08:43:01;45.14;83.00
74420;DHT22;62855;50.718;-2.460;2022-11-20T08:46:01;45.32;83.00
74420;DHT22;62855;50.718;-2.460;2022-11-20T08:48:02;45.32;83.00
74420;DHT22;62855;50.718;-2.460;2022-11-20T08:49:01;45.32;83.00
74420;DHT22;62855;50.718;-2.460;2022-11-20T08:51:00;45.32;83.00
74420;DHT22;62855;50.718;-2.460;2022-11-20T08:52:00;45.32;83.00
74420;DHT22;62855;50.718;-2.460;2022-11-20T08:54:03;45.50;83.00
74420;DHT22;62855;50.718;-2.460;2022-11-20T08:55:01;45.50;83.00
74420;DHT22;62855;50.718;-2.460;2022-11-20T08:57:01;45.68;83.00
74420;DHT22;62855;50.718;-2.460;2022-11-20T08:58:03;45.68;83.00
74420;DHT22;62855;50.718;-2.460;2022-11-20T09:01:01;45.86;83.00
74420;DHT22;62855;50.718;-2.460;2022-11-20T09:04:01;46.04;83.00
74420;DHT22;62855;50.718;-2.460;2022-11-20T09:09:00;46.22;83.00
74420;DHT22;62855;50.718;-2.460;2022-11-20T09:12:01;46.40;83.00
74420;DHT22;62855;50.718;-2.460;2022-11-20T09:15:01;46.40;83.00
74420;DHT22;62855;50.718;-2.460;2022-11-20T09:18:02;46.58;82.00
74420;DHT22;62855;50.718;-2.460;2022-11-20T09:21:02;46.76;82.00
74420;DHT22;62855;50.718;-2.460;2022-11-20T09:24:01;46.94;82.00
74420;DHT22;62855;50.718;-2.460;2022-11-20T09:27:03;46.94;81.00
74420;DHT22;62855;50.718;-2.460;2022-11-20T09:30:00;47.12;81.00
74420;DHT22;62855;50.718;-2.460;2022-11-20T09:33:00;47.48;81.00
74420;DHT22;62855;50.718;-2.460;2022-11-20T09:36:01;47.66;81.00
74420;DHT22;62855;50.718;-2.460;2022-11-20T09:39:01;47.66;81.00
74420;DHT22;62855;50.718;-2.460;2022-11-20T09:42:14;47.84;81.00
74420;DHT22;62855;50.718;-2.460;2022-11-20T09:44:05;47.84;80.00
74420;DHT22;62855;50.718;-2.460;2022-11-20T09:45:13;47.84;80.00
74420;DHT22;62855;50.718;-2.460;2022-11-20T09:47:03;47.84;80.00
74420;DHT22;62855;50.718;-2.460;2022-11-20T09:48:12;47.84;80.00
74420;DHT22;62855;50.718;-2.460;2022-11-20T09:50:12;47.84;80.00
74420;DHT22;62855;50.718;-2.460;2022-11-20T09:51:05;47.84;80.00
74420;DHT22;62855;50.718;-2.460;2022-11-20T09:56:02;47.84;80.00
74420;DHT22;62855;50.718;-2.460;2022-11-20T09:59:04;48.02;80.00
74420;DHT22;62855;50.718;-2.460;2022-11-20T10:02:06;48.20;80.00
74420;DHT22;62855;50.718;-2.460;2022-11-20T10:07:04;48.74;80.00
74420;DHT22;62855;50.718;-2.460;2022-11-20T10:10:01;48.92;80.00
74420;DHT22;62855;50.718;-2.460;2022-11-20T10:13:14;49.10;80.00
74420;DHT22;62855;50.718;-2.460;2022-11-20T10:16:11;49.28;80.00
74420;DHT22;62855;50.718;-2.460;2022-11-20T10:19:12;49.46;80.00
74420;DHT22;62855;50.718;-2.460;2022-11-20T10:22:09;49.46;79.00
74420;DHT22;62855;50.718;-2.460;2022-11-20T10:26:03;49.82;79.00
74420;DHT22;62855;50.718;-2.460;2022-11-20T10:29:09;50.00;78.00
74420;DHT22;62855;50.718;-2.460;2022-11-20T10:32:02;50.18;78.00
74420;DHT22;62855;50.718;-2.460;2022-11-20T10:35:05;50.36;77.00
74420;DHT22;62855;50.718;-2.460;2022-11-20T10:38:03;50.36;76.00
74420;DHT22;62855;50.718;-2.460;2022-11-20T10:41:02;50.36;76.00
74420;DHT22;62855;50.718;-2.460;2022-11-20T10:44:03;50.54;75.00
74420;DHT22;62855;50.718;-2.460;2022-11-20T10:47:02;50.54;74.00
74420;DHT22;62855;50.718;-2.460;2022-11-20T10:50:03;50.54;73.00
74420;DHT22;62855;50.718;-2.460;2022-11-20T10:53:05;50.72;73.00
74420;DHT22;62855;50.718;-2.460;2022-11-20T10:56:05;50.72;73.00
74420;DHT22;62855;50.718;-2.460;2022-11-20T10:59:10;50.72;73.00
74420;DHT22;62855;50.718;-2.460;2022-11-20T11:02:12;50.72;73.00
74420;DHT22;62855;50.718;-2.460;2022-11-20T11:05:10;50.90;73.00
74420;DHT22;62855;50.718;-2.460;2022-11-20T11:08:03;50.90;73.00
74420;DHT22;62855;50.718;-2.460;2022-11-20T11:11:12;51.08;73.00
74420;DHT22;62855;50.718;-2.460;2022-11-20T11:14:05;51.26;73.00
74420;DHT22;62855;50.718;-2.460;2022-11-20T11:17:01;51.26;72.00
74420;DHT22;62855;50.718;-2.460;2022-11-20T11:20:05;51.44;72.00
74420;DHT22;62855;50.718;-2.460;2022-11-20T11:23:01;51.62;72.00
74420;DHT22;62855;50.718;-2.460;2022-11-20T11:26:02;51.98;72.00
74420;DHT22;62855;50.718;-2.460;2022-11-20T11:29:02;52.16;72.00
74420;DHT22;62855;50.718;-2.460;2022-11-20T11:32:04;52.16;72.00
74420;DHT22;62855;50.718;-2.460;2022-11-20T11:35:03;52.34;71.00
74420;DHT22;62855;50.718;-2.460;2022-11-20T11:38:04;52.52;71.00
74420;DHT22;62855;50.718;-2.460;2022-11-20T11:41:02;52.52;71.00
74420;DHT22;62855;50.718;-2.460;2022-11-20T11:44:15;52.34;71.00
74420;DHT22;62855;50.718;-2.460;2022-11-20T11:47:02;52.16;71.00
74420;DHT22;62855;50.718;-2.460;2022-11-20T11:50:13;52.16;71.00
74420;DHT22;62855;50.718;-2.460;2022-11-20T11:53:08;52.16;71.00
74420;DHT22;62855;50.718;-2.460;2022-11-20T11:56:05;52.16;71.00
74420;DHT22;62855;50.718;-2.460;2022-11-20T11:59:04;51.98;70.00
74420;DHT22;62855;50.718;-2.460;2022-11-20T12:02:05;51.98;70.00
74420;DHT22;62855;50.718;-2.460;2022-11-20T12:05:08;52.16;70.00
74420;DHT22;62855;50.718;-2.460;2022-11-20T12:08:04;52.34;70.00
74420;DHT22;62855;50.718;-2.460;2022-11-20T12:11:05;52.34;70.00
74420;DHT22;62855;50.718;-2.460;2022-11-20T12:14:04;52.34;70.00
74420;DHT22;62855;50.718;-2.460;2022-11-20T12:17:03;51.98;70.00
74420;DHT22;62855;50.718;-2.460;2022-11-20T12:20:01;51.98;70.00
74420;DHT22;62855;50.718;-2.460;2022-11-20T12:23:05;52.16;70.00
74420;DHT22;62855;50.718;-2.460;2022-11-20T12:26:07;52.70;70.00
74420;DHT22;62855;50.718;-2.460;2022-11-20T12:29:10;52.88;70.00
74420;DHT22;62855;50.718;-2.460;2022-11-20T12:32:14;52.88;70.00
74420;DHT22;62855;50.718;-2.460;2022-11-20T12:35:05;52.70;70.00
74420;DHT22;62855;50.718;-2.460;2022-11-20T12:38:14;52.52;69.00
74420;DHT22;62855;50.718;-2.460;2022-11-20T12:41:09;52.16;68.00
74420;DHT22;62855;50.718;-2.460;2022-11-20T12:44:05;51.98;68.00
74420;DHT22;62855;50.718;-2.460;2022-11-20T12:47:09;51.80;68.00
74420;DHT22;62855;50.718;-2.460;2022-11-20T12:50:08;51.62;69.00
74420;DHT22;62855;50.718;-2.460;2022-11-20T12:53:04;51.62;69.00
74420;DHT22;62855;50.718;-2.460;2022-11-20T12:56:09;51.44;70.00
74420;DHT22;62855;50.718;-2.460;2022-11-20T12:59:16;51.44;70.00
74420;DHT22;62855;50.718;-2.460;2022-11-20T13:02:13;51.44;68.00
74420;DHT22;62855;50.718;-2.460;2022-11-20T13:05:14;51.44;68.00
74420;DHT22;62855;50.718;-2.460;2022-11-20T13:08:02;51.44;67.00
74420;DHT22;62855;50.718;-2.460;2022-11-20T13:11:09;51.26;66.00
74420;DHT22;62855;50.718;-2.460;2022-11-20T13:14:10;51.26;65.00
74420;DHT22;62855;50.718;-2.460;2022-11-20T13:17:09;51.08;65.00
74420;DHT22;62855;50.718;-2.460;2022-11-20T13:20:05;51.08;65.00
74420;DHT22;62855;50.718;-2.460;2022-11-20T13:23:01;51.26;66.00
74420;DHT22;62855;50.718;-2.460;2022-11-20T13:26:05;51.44;66.00
74420;DHT22;62855;50.718;-2.460;2022-11-20T13:29:08;51.26;66.00
74420;DHT22;62855;50.718;-2.460;2022-11-20T13:32:03;51.26;66.00
74420;DHT22;62855;50.718;-2.460;2022-11-20T13:35:03;51.08;66.00
74420;DHT22;62855;50.718;-2.460;2022-11-20T13:38:03;51.08;67.00
74420;DHT22;62855;50.718;-2.460;2022-11-20T13:41:02;51.26;67.00
74420;DHT22;62855;50.718;-2.460;2022-11-20T13:44:10;51.26;66.00
74420;DHT22;62855;50.718;-2.460;2022-11-20T13:47:01;51.26;66.00
74420;DHT22;62855;50.718;-2.460;2022-11-20T13:50:04;51.26;66.00
74420;DHT22;62855;50.718;-2.460;2022-11-20T13:53:10;51.08;66.00
74420;DHT22;62855;50.718;-2.460;2022-11-20T13:56:06;51.08;66.00
74420;DHT22;62855;50.718;-2.460;2022-11-20T13:59:06;51.08;66.00
74420;DHT22;62855;50.718;-2.460;2022-11-20T14:02:01;51.08;66.00
74420;DHT22;62855;50.718;-2.460;2022-11-20T14:05:03;51.08;67.00
74420;DHT22;62855;50.718;-2.460;2022-11-20T14:08:03;51.26;67.00
74420;DHT22;62855;50.718;-2.460;2022-11-20T14:11:04;51.26;67.00
74420;DHT22;62855;50.718;-2.460;2022-11-20T14:14:03;51.26;67.00
74420;DHT22;62855;50.718;-2.460;2022-11-20T14:17:05;51.26;67.00
74420;DHT22;62855;50.718;-2.460;2022-11-20T14:20:04;51.26;67.00
74420;DHT22;62855;50.718;-2.460;2022-11-20T14:23:01;51.26;67.00
74420;DHT22;62855;50.718;-2.460;2022-11-20T14:26:01;51.26;67.00
74420;DHT22;62855;50.718;-2.460;2022-11-20T14:29:02;51.26;67.00
74420;DHT22;62855;50.718;-2.460;2022-11-20T14:32:02;51.08;67.00
74420;DHT22;62855;50.718;-2.460;2022-11-20T14:35:06;51.08;67.00
74420;DHT22;62855;50.718;-2.460;2022-11-20T14:38:02;50.90;67.00
74420;DHT22;62855;50.718;-2.460;2022-11-20T14:41:09;50.72;67.00
74420;DHT22;62855;50.718;-2.460;2022-11-20T14:44:00;50.36;68.00
74420;DHT22;62855;50.718;-2.460;2022-11-20T14:47:02;50.36;68.00
74420;DHT22;62855;50.718;-2.460;2022-11-20T14:50:01;50.36;69.00
74420;DHT22;62855;50.718;-2.460;2022-11-20T14:53:01;50.36;70.00
74420;DHT22;62855;50.718;-2.460;2022-11-20T14:56:03;50.72;70.00
74420;DHT22;62855;50.718;-2.460;2022-11-20T14:59:01;50.90;70.00
74420;DHT22;62855;50.718;-2.460;2022-11-20T15:02:03;51.08;70.00
74420;DHT22;62855;50.718;-2.460;2022-11-20T15:05:02;51.08;70.00
74420;DHT22;62855;50.718;-2.460;2022-11-20T15:08:07;51.26;70.00
74420;DHT22;62855;50.718;-2.460;2022-11-20T15:11:01;51.26;69.00
74420;DHT22;62855;50.718;-2.460;2022-11-20T15:14:04;51.08;69.00
74420;DHT22;62855;50.718;-2.460;2022-11-20T15:17:01;51.26;69.00
74420;DHT22;62855;50.718;-2.460;2022-11-20T15:20:02;51.08;67.00
74420;DHT22;62855;50.718;-2.460;2022-11-20T15:23:01;51.08;66.00
74420;DHT22;62855;50.718;-2.460;2022-11-20T15:26:04;50.90;66.00
74420;DHT22;62855;50.718;-2.460;2022-11-20T15:29:01;50.90;65.00
74420;DHT22;62855;50.718;-2.460;2022-11-20T15:32:01;50.90;65.00
74420;DHT22;62855;50.718;-2.460;2022-11-20T15:35:01;50.72;65.00
74420;DHT22;62855;50.718;-2.460;2022-11-20T15:38:01;50.54;66.00
74420;DHT22;62855;50.718;-2.460;2022-11-20T15:41:01;50.36;66.00
74420;DHT22;62855;50.718;-2.460;2022-11-20T15:44:00;50.00;66.00
74420;DHT22;62855;50.718;-2.460;2022-11-20T15:47:00;50.00;66.00
74420;DHT22;62855;50.718;-2.460;2022-11-20T15:50:02;49.82;66.00
74420;DHT22;62855;50.718;-2.460;2022-11-20T15:53:01;49.64;66.00
74420;DHT22;62855;50.718;-2.460;2022-11-20T15:56:01;49.46;66.00
74420;DHT22;62855;50.718;-2.460;2022-11-20T15:59:00;49.28;66.00
74420;DHT22;62855;50.718;-2.460;2022-11-20T16:02:01;49.28;66.00
74420;DHT22;62855;50.718;-2.460;2022-11-20T16:05:01;49.10;66.00
74420;DHT22;62855;50.718;-2.460;2022-11-20T16:08:01;48.92;67.00
74420;DHT22;62855;50.718;-2.460;2022-11-20T16:11:01;48.92;67.00
74420;DHT22;62855;50.718;-2.460;2022-11-20T16:14:01;48.74;67.00
74420;DHT22;62855;50.718;-2.460;2022-11-20T16:17:02;48.56;67.00
74420;DHT22;62855;50.718;-2.460;2022-11-20T16:20:00;48.38;67.00
74420;DHT22;62855;50.718;-2.460;2022-11-20T16:23:01;48.38;68.00
74420;DHT22;62855;50.718;-2.460;2022-11-20T16:26:09;48.20;67.00
74420;DHT22;62855;50.718;-2.460;2022-11-20T16:29:03;48.02;67.00
74420;DHT22;62855;50.718;-2.460;2022-11-20T16:32:00;47.84;67.00
74420;DHT22;62855;50.718;-2.460;2022-11-20T16:35:01;47.84;67.00
74420;DHT22;62855;50.718;-2.460;2022-11-20T16:38:01;47.66;68.00
74420;DHT22;62855;50.718;-2.460;2022-11-20T16:41:00;47.66;68.00
74420;DHT22;62855;50.718;-2.460;2022-11-20T16:44:04;47.48;68.00
74420;DHT22;62855;50.718;-2.460;2022-11-20T16:47:00;47.30;68.00
74420;DHT22;62855;50.718;-2.460;2022-11-20T16:50:02;47.30;68.00
74420;DHT22;62855;50.718;-2.460;2022-11-20T16:53:01;47.12;68.00
74420;DHT22;62855;50.718;-2.460;2022-11-20T16:56:08;46.94;68.00
74420;DHT22;62855;50.718;-2.460;2022-11-20T16:59:02;46.94;68.00
74420;DHT22;62855;50.718;-2.460;2022-11-20T17:02:01;46.94;67.00
74420;DHT22;62855;50.718;-2.460;2022-11-20T17:05:02;46.76;67.00
74420;DHT22;62855;50.718;-2.460;2022-11-20T17:08:01;46.76;67.00
74420;DHT22;62855;50.718;-2.460;2022-11-20T17:11:04;46.76;67.00
74420;DHT22;62855;50.718;-2.460;2022-11-20T17:14:01;46.58;67.00
74420;DHT22;62855;50.718;-2.460;2022-11-20T17:17:01;46.40;67.00
74420;DHT22;62855;50.718;-2.460;2022-11-20T17:20:01;46.40;67.00
74420;DHT22;62855;50.718;-2.460;2022-11-20T17:23:01;46.40;67.00
74420;DHT22;62855;50.718;-2.460;2022-11-20T17:26:02;46.40;68.00
74420;DHT22;62855;50.718;-2.460;2022-11-20T17:29:04;46.22;68.00
74420;DHT22;62855;50.718;-2.460;2022-11-20T17:32:01;46.22;68.00
74420;DHT22;62855;50.718;-2.460;2022-11-20T17:35:00;46.22;68.00
74420;DHT22;62855;50.718;-2.460;2022-11-20T17:38:01;46.04;68.00
74420;DHT22;62855;50.718;-2.460;2022-11-20T17:41:02;46.04;68.00
74420;DHT22;62855;50.718;-2.460;2022-11-20T17:44:01;46.04;68.00
74420;DHT22;62855;50.718;-2.460;2022-11-20T17:47:01;46.04;68.00
74420;DHT22;62855;50.718;-2.460;2022-11-20T17:50:01;46.04;68.00
74420;DHT22;62855;50.718;-2.460;2022-11-20T17:53:01;45.86;68.00
74420;DHT22;62855;50.718;-2.460;2022-11-20T17:56:02;45.86;69.00
74420;DHT22;62855;50.718;-2.460;2022-11-20T17:59:03;45.68;69.00
74420;DHT22;62855;50.718;-2.460;2022-11-20T18:02:01;45.68;69.00
74420;DHT22;62855;50.718;-2.460;2022-11-20T18:05:01;45.68;69.00
74420;DHT22;62855;50.718;-2.460;2022-11-20T18:08:01;45.68;69.00
74420;DHT22;62855;50.718;-2.460;2022-11-20T18:11:08;45.68;69.00
74420;DHT22;62855;50.718;-2.460;2022-11-20T18:14:04;45.68;69.00
74420;DHT22;62855;50.718;-2.460;2022-11-20T18:17:03;45.68;70.00
74420;DHT22;62855;50.718;-2.460;2022-11-20T18:20:01;45.50;70.00
74420;DHT22;62855;50.718;-2.460;2022-11-20T18:23:00;45.50;70.00
74420;DHT22;62855;50.718;-2.460;2022-11-20T18:26:00;45.50;70.00
74420;DHT22;62855;50.718;-2.460;2022-11-20T18:29:01;45.50;70.00
74420;DHT22;62855;50.718;-2.460;2022-11-20T18:32:01;45.32;70.00
74420;DHT22;62855;50.718;-2.460;2022-11-20T18:35:02;45.32;70.00
74420;DHT22;62855;50.718;-2.460;2022-11-20T18:38:01;45.32;70.00
74420;DHT22;62855;50.718;-2.460;2022-11-20T18:41:01;45.32;70.00
74420;DHT22;62855;50.718;-2.460;2022-11-20T18:44:02;45.32;70.00
74420;DHT22;62855;50.718;-2.460;2022-11-20T18:47:00;45.32;70.00
74420;DHT22;62855;50.718;-2.460;2022-11-20T18:50:04;45.32;70.00
74420;DHT22;62855;50.718;-2.460;2022-11-20T18:53:01;45.14;70.00
74420;DHT22;62855;50.718;-2.460;2022-11-20T18:56:02;45.14;70.00
74420;DHT22;62855;50.718;-2.460;2022-11-20T18:59:01;45.14;71.00
74420;DHT22;62855;50.718;-2.460;2022-11-20T19:02:01;45.14;71.00
74420;DHT22;62855;50.718;-2.460;2022-11-20T19:05:02;45.14;71.00
74420;DHT22;62855;50.718;-2.460;2022-11-20T19:08:01;45.14;71.00
74420;DHT22;62855;50.718;-2.460;2022-11-20T19:11:05;45.14;71.00
74420;DHT22;62855;50.718;-2.460;2022-11-20T19:14:01;45.14;71.00
74420;DHT22;62855;50.718;-2.460;2022-11-20T19:17:01;45.14;71.00